East Walpole, Massachusetts
Current Conditions -  °F | °C
As of 8:53 AM on Thursday 18 Dec 2014 (Local Time) from KOWD Reporting Station
Overcast Overcast  
Wind Chill: 30°   Ceiling: 3700
Heat Index: 36°   Visibility: 10mi
Dew Point: 33°   Wind: 7mph
Humidity: 89%   Direction: 260°W
Pressure: 29.79"   Gusts: NA
Location:  42.16°N, 71.21°W
Report Text: KOWD 181353Z 26006KT 10SM FEW013 OVC037 02/01 A2979 RMK AO2 UPE48 SLP087 P0000 T00220006
Loading
Personal Weather Stations






























Interactive Weather Map New forecast layout! Learn more

10-Day Weather Forecast

Advertisements
Track Severe Weather on mobile